Fesco Vladimir — 5BSL2 — position and weather

sailwx.info

Track history (hours):
 
Tides and Currents Weather Stations Pressure Air Temp Water Temp Dewpoint Dewpoint Depression Visibility Wind Speed Wind Dir Waves Ship Positions

Fesco Vladimir

Last reported at 2016-May-27 17:32 UTC. Time now 2016-May-27 18:11 UTC.
Position N 51°57' E 004°03'.

Length 184 m; draft 10.2 m.

Type: Ship (hazmat cat A). MMSI: 209777000.

Date/timePositionNaut miles runAvg speedWind from/ knotsBaromVisibWave heightAir tempDewpointWater temp
2016-May-27 17:32N 51°57' E 004°03'0 0.0
2016-May-27 16:32N 51°57' E 004°03'0 0.0
2016-May-27 15:32N 51°57' E 004°03'0 0.0
2016-May-27 14:32N 51°57' E 004°03'0 0.0
2016-May-27 13:32N 51°57' E 004°03'1 1.2
2016-May-27 12:33N 51°58' E 004°03'1 0.9
2016-May-27 11:32N 51°59' E 004°02'0 0.0
2016-May-27 10:32N 51°59' E 004°02'0 0.0
2016-May-27 09:32N 51°59' E 004°02'0 0.0
2016-May-27 08:32N 51°59' E 004°02'0 0.0
2016-May-27 07:29N 51°59' E 004°02'0 0.0
2016-May-27 06:32N 51°59' E 004°02'0 0.0
2016-May-27 05:26N 51°59' E 004°02'0 0.0
2016-May-27 04:32N 51°59' E 004°02'0 0.0
2016-May-27 03:29N 51°59' E 004°02'0 0.0
2016-May-27 02:32N 51°59' E 004°02'0 0.0
2016-May-27 01:29N 51°59' E 004°02'0 0.0
2016-May-27 00:29N 51°59' E 004°02'1 1.3
2016-May-26 23:33N 51°58' E 004°03'8 7.9
2016-May-26 22:33N 52°00' E 003°51'1313.4
2016-May-26 21:33N 52°13' E 003°46'1918.7
2016-May-26 20:33N 52°32' E 003°52'1917.8
2016-May-26 19:28N 52°51' E 003°58'1816.6
2016-May-26 18:23N 53°05' E 004°15'5318.3
2016-May-26 15:29N 53°54' E 004°51'1818.9
2016-May-26 14:33N 54°10' E 005°01'4618.6
2016-May-26 12:05N 54°51' E 005°39'1118.4
2016-May-26 11:30N 55°00' E 005°48'21417.9
2016-May-25 23:33N 57°43' E 009°59'1919.5
2016-May-25 22:33N 57°47' E 010°34'1818.1
2016-May-25 21:33N 57°39' E 011°04'1818.2
2016-May-25 20:33N 57°26' E 011°27'1918.4
2016-May-25 19:33N 57°08' E 011°40'1818.3
2016-May-25 18:33N 56°51' E 011°51'1716.7
2016-May-25 17:33N 56°35' E 011°43'5217.5
2016-May-25 14:33N 55°51' E 010°52'1616.5
2016-May-25 13:33N 55°35' E 010°50'1616.5
2016-May-25 12:33N 55°20' E 011°02'1414.2
2016-May-25 11:33N 55°06' E 011°03'1515.0
2016-May-25 10:33N 54°52' E 010°53'1414.4
2016-May-25 09:33N 54°39' E 011°03'1717.5
2016-May-25 08:33N 54°31' E 011°30'1717.3
2016-May-25 07:33N 54°26' E 011°58'1514.9
2016-May-25 06:33N 54°37' E 012°17'1717.4
2016-May-25 05:33N 54°47' E 012°41'1818.0
2016-May-25 04:33N 54°53' E 013°10'1918.7
2016-May-25 03:33N 54°60' E 013°40'1818.3
2016-May-25 02:33N 55°09' E 014°08'1818.4
2016-May-25 01:33N 55°22' E 014°30'1818.4
2016-May-25 00:33N 55°33' E 014°57'1918.6
2016-May-24 23:33N 55°42' E 015°25'1918.7
2016-May-24 22:33N 55°52' E 015°54'27117.9
2016-May-24 07:24N 59°09' E 021°40'1518.0
2016-May-24 06:33N 59°19' E 022°04'1818.0
2016-May-24 05:33N 59°29' E 022°32'1818.2
2016-May-24 04:33N 59°35' E 023°06'1818.1
2016-May-24 03:33N 59°40' E 023°40'1818.3
2016-May-24 02:33N 59°46' E 024°15'4318.1
2016-May-24 00:10N 59°55' E 025°39'1918.0
2016-May-23 23:07N 59°59' E 026°15'1018.1
2016-May-23 22:33N 60°01' E 026°35'1817.4
2016-May-23 21:32N 60°02' E 027°11'1818.1
2016-May-23 20:33N 60°11' E 027°41'1717.1
2016-May-23 19:33N 60°09' E 028°16'1616.4
2016-May-23 18:33N 60°03' E 028°46'1717.5
2016-May-23 17:33N 60°02' E 029°21'1211.6
2016-May-23 16:33N 59°59' E 029°44'3 3.0
2016-May-23 15:32N 59°56' E 029°41'0 0.0
2016-May-23 14:32N 59°56' E 029°41'0 0.0
2016-May-23 13:32N 59°56' E 029°41'0 0.0
2016-May-23 12:32N 59°56' E 029°41'0 0.0
2016-May-23 11:29N 59°56' E 029°41'0 0.0
2016-May-23 10:32N 59°56' E 029°41'0 0.0
2016-May-23 09:32N 59°56' E 029°41'0 0.0
2016-May-23 08:32N 59°56' E 029°42'0 0.0
2016-May-23 07:32N 59°56' E 029°42'0 0.0
2016-May-23 06:32N 59°56' E 029°42'0 0.0
2016-May-23 05:32N 59°56' E 029°42'0 0.0
2016-May-23 04:32N 59°56' E 029°42'0 0.0
2016-May-23 03:32N 59°56' E 029°42'0 0.0
2016-May-23 02:32N 59°56' E 029°42'0 0.0
2016-May-23 01:32N 59°56' E 029°42'0 0.0
2016-May-23 00:32N 59°56' E 029°42'0 0.0
2016-May-22 23:32N 59°56' E 029°42'0 0.0
2016-May-22 22:32N 59°56' E 029°42'0 0.0
2016-May-22 21:32N 59°56' E 029°42'0 0.0
2016-May-22 20:32N 59°56' E 029°42'0 0.1
2016-May-22 19:33N 59°56' E 029°42'3 3.0
2016-May-22 18:33N 59°59' E 029°44'1010.0
2016-May-22 17:33N 59°55' E 030°02'6 5.6
2016-May-22 16:31N 59°52' E 030°12'0 0.0
2016-May-22 15:31N 59°52' E 030°12'0 0.0
2016-May-22 14:31N 59°52' E 030°12'0 0.0
2016-May-22 13:31N 59°52' E 030°12'0 0.0
2016-May-22 12:31N 59°52' E 030°12'0 0.0
2016-May-22 11:31N 59°52' E 030°12'0 0.0
2016-May-22 10:31N 59°52' E 030°12'0 0.0
2016-May-22 09:31N 59°52' E 030°12'0 0.0
2016-May-22 08:31N 59°52' E 030°12'0 0.0
2016-May-22 07:31N 59°52' E 030°12'0 0.0
2016-May-22 06:31N 59°52' E 030°12'0 0.0
2016-May-22 05:31N 59°52' E 030°12'0 0.0
2016-May-22 04:31N 59°52' E 030°12'0 0.0
2016-May-22 03:31N 59°52' E 030°12'0 0.1
2016-May-22 02:33N 59°52' E 030°12'0 0.4
2016-May-22 01:32N 59°53' E 030°12'0 0.0
2016-May-22 00:32N 59°53' E 030°12'0 0.0
2016-May-21 23:32N 59°53' E 030°12'0 0.0
2016-May-21 22:32N 59°53' E 030°12'0 0.0
2016-May-21 21:32N 59°53' E 030°12'0 0.0
2016-May-21 20:32N 59°53' E 030°12'0 0.0
2016-May-21 19:32N 59°53' E 030°12'0 0.0
2016-May-21 18:32N 59°53' E 030°12'0 0.0
2016-May-21 17:32N 59°53' E 030°12'0 0.0
2016-May-21 16:32N 59°53' E 030°12'1 1.1
2016-May-21 15:33N 59°53' E 030°10'10 9.6
2016-May-21 14:33N 59°57' E 029°52'4 4.1
2016-May-21 13:33N 59°57' E 029°44'2 1.6
2016-May-21 12:31N 59°56' E 029°42'0 0.0
2016-May-21 11:31N 59°56' E 029°42'0 0.0
2016-May-21 10:31N 59°56' E 029°42'0 0.0
2016-May-21 09:31N 59°56' E 029°42'0 0.0
2016-May-21 08:31N 59°56' E 029°42'0 0.0
2016-May-21 07:28N 59°56' E 029°42'0 0.0
2016-May-21 06:31N 59°56' E 029°42'0 0.0
2016-May-21 05:31N 59°56' E 029°42'0 0.0
2016-May-21 04:31N 59°56' E 029°42'0 0.0
2016-May-21 03:31N 59°56' E 029°42'0 0.4
2016-May-21 02:33N 59°56' E 029°42'7 6.7
2016-May-21 01:33N 60°01' E 029°33'1111.5
2016-May-21 00:33N 60°02' E 029°10'1212.5
2016-May-20 23:33N 60°02' E 028°45'1212.3
2016-May-20 22:33N 59°52' E 028°29'1211.7
2016-May-20 21:33N 59°41' E 028°24'0 0.5
2016-May-20 20:33N 59°40' E 028°24'0 0.0
2016-May-20 19:24N 59°40' E 028°24'0 0.0
2016-May-20 18:33N 59°40' E 028°24'0 0.0
2016-May-20 17:24N 59°40' E 028°24'0 0.0
2016-May-20 16:24N 59°40' E 028°24'0 0.0
2016-May-20 15:27N 59°40' E 028°24'0 0.0
2016-May-20 14:21N 59°40' E 028°24'3 3.9
2016-May-20 13:33N 59°44' E 028°23'1313.0
2016-May-20 12:34N 59°56' E 028°33'1211.9
2016-May-20 11:33N 60°05' E 028°19'1616.0
2016-May-20 10:33N 60°10' E 027°49'1616.2
2016-May-20 09:33N 60°03' E 027°20'1515.4
2016-May-20 08:33N 59°59' E 026°50'1615.9
2016-May-20 07:33N 59°56' E 026°19'1616.1
2016-May-20 06:33N 59°52' E 025°48'1616.0
2016-May-20 05:33N 59°48' E 025°17'2116.1
2016-May-20 04:15N 59°44' E 024°36'1416.1
2016-May-20 03:25N 59°40' E 024°10'1416.1
2016-May-20 02:33N 59°36' E 023°44'1616.2
2016-May-20 01:33N 59°31' E 023°14'1616.1
2016-May-20 00:32N 59°26' E 022°43'32116.1
2016-May-19 04:34N 55°41' E 015°38'1616.0
2016-May-19 03:33N 55°33' E 015°13'1616.2
2016-May-19 02:34N 55°25' E 014°48'1615.7
2016-May-19 01:34N 55°15' E 014°27'1616.1
2016-May-19 00:34N 55°03' E 014°08'1615.9
2016-May-18 23:33N 54°56' E 013°43'1615.9
2016-May-18 22:33N 54°51' E 013°17'1615.5
2016-May-18 21:33N 54°46' E 012°51'2216.0
2016-May-18 20:12N 54°35' E 012°19'1116.6
2016-May-18 19:33N 54°25' E 012°12'1615.8
2016-May-18 18:33N 54°25' E 011°45'1616.1
2016-May-18 17:33N 54°32' E 011°20'1616.1
2016-May-18 16:33N 54°40' E 010°56'1414.2
2016-May-18 15:33N 54°54' E 010°53'1615.6
2016-May-18 14:33N 55°09' E 011°03'4414.3
2016-May-18 11:26N 55°53' E 010°54'1415.6
2016-May-18 10:33N 56°05' E 011°08'4715.6
2016-May-18 07:33N 56°45' E 011°51'1616.3
2016-May-18 06:33N 57°00' E 011°43'1716.6
2016-May-18 05:33N 57°16' E 011°33'1716.5
2016-May-18 04:33N 57°31' E 011°19'1717.2
2016-May-18 03:33N 57°42' E 010°55'1716.7
2016-May-18 02:33N 57°47' E 010°25'  
Track history (hours):
 
Tides and Currents Weather Stations Pressure Air Temp Water Temp Dewpoint Dewpoint Depression Visibility Wind Speed Wind Dir Waves Ship Positions

Fesco Vladimir

Last reported at 2016-May-27 17:32 UTC. Time now 2016-May-27 18:11 UTC.
Position N 51°57' E 004°03'.

Length 184 m; draft 10.2 m.

Type: Ship (hazmat cat A). MMSI: 209777000.

Date/timePositionNaut miles runAvg speedWind from/ knotsBaromVisibWave heightAir tempDewpointWater temp
2016-May-27 17:32N 51°57' E 004°03'0 0.0
2016-May-27 16:32N 51°57' E 004°03'0 0.0
2016-May-27 15:32N 51°57' E 004°03'0 0.0
2016-May-27 14:32N 51°57' E 004°03'0 0.0
2016-May-27 13:32N 51°57' E 004°03'1 1.2
2016-May-27 12:33N 51°58' E 004°03'1 0.9
2016-May-27 11:32N 51°59' E 004°02'0 0.0
2016-May-27 10:32N 51°59' E 004°02'0 0.0
2016-May-27 09:32N 51°59' E 004°02'0 0.0
2016-May-27 08:32N 51°59' E 004°02'0 0.0
2016-May-27 07:29N 51°59' E 004°02'0 0.0
2016-May-27 06:32N 51°59' E 004°02'0 0.0
2016-May-27 05:26N 51°59' E 004°02'0 0.0
2016-May-27 04:32N 51°59' E 004°02'0 0.0
2016-May-27 03:29N 51°59' E 004°02'0 0.0
2016-May-27 02:32N 51°59' E 004°02'0 0.0
2016-May-27 01:29N 51°59' E 004°02'0 0.0
2016-May-27 00:29N 51°59' E 004°02'1 1.3
2016-May-26 23:33N 51°58' E 004°03'8 7.9
2016-May-26 22:33N 52°00' E 003°51'1313.4
2016-May-26 21:33N 52°13' E 003°46'1918.7
2016-May-26 20:33N 52°32' E 003°52'1917.8
2016-May-26 19:28N 52°51' E 003°58'1816.6
2016-May-26 18:23N 53°05' E 004°15'5318.3
2016-May-26 15:29N 53°54' E 004°51'1818.9
2016-May-26 14:33N 54°10' E 005°01'4618.6
2016-May-26 12:05N 54°51' E 005°39'1118.4
2016-May-26 11:30N 55°00' E 005°48'21417.9
2016-May-25 23:33N 57°43' E 009°59'1919.5
2016-May-25 22:33N 57°47' E 010°34'1818.1
2016-May-25 21:33N 57°39' E 011°04'1818.2
2016-May-25 20:33N 57°26' E 011°27'1918.4
2016-May-25 19:33N 57°08' E 011°40'1818.3
2016-May-25 18:33N 56°51' E 011°51'1716.7
2016-May-25 17:33N 56°35' E 011°43'5217.5
2016-May-25 14:33N 55°51' E 010°52'1616.5
2016-May-25 13:33N 55°35' E 010°50'1616.5
2016-May-25 12:33N 55°20' E 011°02'1414.2
2016-May-25 11:33N 55°06' E 011°03'1515.0
2016-May-25 10:33N 54°52' E 010°53'1414.4
2016-May-25 09:33N 54°39' E 011°03'1717.5
2016-May-25 08:33N 54°31' E 011°30'1717.3
2016-May-25 07:33N 54°26' E 011°58'1514.9
2016-May-25 06:33N 54°37' E 012°17'1717.4
2016-May-25 05:33N 54°47' E 012°41'1818.0
2016-May-25 04:33N 54°53' E 013°10'1918.7
2016-May-25 03:33N 54°60' E 013°40'1818.3
2016-May-25 02:33N 55°09' E 014°08'1818.4
2016-May-25 01:33N 55°22' E 014°30'1818.4
2016-May-25 00:33N 55°33' E 014°57'1918.6
2016-May-24 23:33N 55°42' E 015°25'1918.7
2016-May-24 22:33N 55°52' E 015°54'27117.9
2016-May-24 07:24N 59°09' E 021°40'1518.0
2016-May-24 06:33N 59°19' E 022°04'1818.0
2016-May-24 05:33N 59°29' E 022°32'1818.2
2016-May-24 04:33N 59°35' E 023°06'1818.1
2016-May-24 03:33N 59°40' E 023°40'1818.3
2016-May-24 02:33N 59°46' E 024°15'4318.1
2016-May-24 00:10N 59°55' E 025°39'1918.0
2016-May-23 23:07N 59°59' E 026°15'1018.1
2016-May-23 22:33N 60°01' E 026°35'1817.4
2016-May-23 21:32N 60°02' E 027°11'1818.1
2016-May-23 20:33N 60°11' E 027°41'1717.1
2016-May-23 19:33N 60°09' E 028°16'1616.4
2016-May-23 18:33N 60°03' E 028°46'1717.5
2016-May-23 17:33N 60°02' E 029°21'1211.6
2016-May-23 16:33N 59°59' E 029°44'3 3.0
2016-May-23 15:32N 59°56' E 029°41'0 0.0
2016-May-23 14:32N 59°56' E 029°41'0 0.0
2016-May-23 13:32N 59°56' E 029°41'0 0.0
2016-May-23 12:32N 59°56' E 029°41'0 0.0
2016-May-23 11:29N 59°56' E 029°41'0 0.0
2016-May-23 10:32N 59°56' E 029°41'0 0.0
2016-May-23 09:32N 59°56' E 029°41'0 0.0
2016-May-23 08:32N 59°56' E 029°42'0 0.0
2016-May-23 07:32N 59°56' E 029°42'0 0.0
2016-May-23 06:32N 59°56' E 029°42'0 0.0
2016-May-23 05:32N 59°56' E 029°42'0 0.0
2016-May-23 04:32N 59°56' E 029°42'0 0.0
2016-May-23 03:32N 59°56' E 029°42'0 0.0
2016-May-23 02:32N 59°56' E 029°42'0 0.0
2016-May-23 01:32N 59°56' E 029°42'0 0.0
2016-May-23 00:32N 59°56' E 029°42'0 0.0
2016-May-22 23:32N 59°56' E 029°42'0 0.0
2016-May-22 22:32N 59°56' E 029°42'0 0.0
2016-May-22 21:32N 59°56' E 029°42'0 0.0
2016-May-22 20:32N 59°56' E 029°42'0 0.1
2016-May-22 19:33N 59°56' E 029°42'3 3.0
2016-May-22 18:33N 59°59' E 029°44'1010.0
2016-May-22 17:33N 59°55' E 030°02'6 5.6
2016-May-22 16:31N 59°52' E 030°12'0 0.0
2016-May-22 15:31N 59°52' E 030°12'0 0.0
2016-May-22 14:31N 59°52' E 030°12'0 0.0
2016-May-22 13:31N 59°52' E 030°12'0 0.0
2016-May-22 12:31N 59°52' E 030°12'0 0.0
2016-May-22 11:31N 59°52' E 030°12'0 0.0
2016-May-22 10:31N 59°52' E 030°12'0 0.0
2016-May-22 09:31N 59°52' E 030°12'0 0.0
2016-May-22 08:31N 59°52' E 030°12'0 0.0
2016-May-22 07:31N 59°52' E 030°12'0 0.0
2016-May-22 06:31N 59°52' E 030°12'0 0.0
2016-May-22 05:31N 59°52' E 030°12'0 0.0
2016-May-22 04:31N 59°52' E 030°12'0 0.0
2016-May-22 03:31N 59°52' E 030°12'0 0.1
2016-May-22 02:33N 59°52' E 030°12'0 0.4
2016-May-22 01:32N 59°53' E 030°12'0 0.0
2016-May-22 00:32N 59°53' E 030°12'0 0.0
2016-May-21 23:32N 59°53' E 030°12'0 0.0
2016-May-21 22:32N 59°53' E 030°12'0 0.0
2016-May-21 21:32N 59°53' E 030°12'0 0.0
2016-May-21 20:32N 59°53' E 030°12'0 0.0
2016-May-21 19:32N 59°53' E 030°12'0 0.0
2016-May-21 18:32N 59°53' E 030°12'0 0.0
2016-May-21 17:32N 59°53' E 030°12'0 0.0
2016-May-21 16:32N 59°53' E 030°12'1 1.1
2016-May-21 15:33N 59°53' E 030°10'10 9.6
2016-May-21 14:33N 59°57' E 029°52'4 4.1
2016-May-21 13:33N 59°57' E 029°44'2 1.6
2016-May-21 12:31N 59°56' E 029°42'0 0.0
2016-May-21 11:31N 59°56' E 029°42'0 0.0
2016-May-21 10:31N 59°56' E 029°42'0 0.0
2016-May-21 09:31N 59°56' E 029°42'0 0.0
2016-May-21 08:31N 59°56' E 029°42'0 0.0
2016-May-21 07:28N 59°56' E 029°42'0 0.0
2016-May-21 06:31N 59°56' E 029°42'0 0.0
2016-May-21 05:31N 59°56' E 029°42'0 0.0
2016-May-21 04:31N 59°56' E 029°42'0 0.0
2016-May-21 03:31N 59°56' E 029°42'0 0.4
2016-May-21 02:33N 59°56' E 029°42'7 6.7
2016-May-21 01:33N 60°01' E 029°33'1111.5
2016-May-21 00:33N 60°02' E 029°10'1212.5
2016-May-20 23:33N 60°02' E 028°45'1212.3
2016-May-20 22:33N 59°52' E 028°29'1211.7
2016-May-20 21:33N 59°41' E 028°24'0 0.5
2016-May-20 20:33N 59°40' E 028°24'0 0.0
2016-May-20 19:24N 59°40' E 028°24'0 0.0
2016-May-20 18:33N 59°40' E 028°24'0 0.0
2016-May-20 17:24N 59°40' E 028°24'0 0.0
2016-May-20 16:24N 59°40' E 028°24'0 0.0
2016-May-20 15:27N 59°40' E 028°24'0 0.0
2016-May-20 14:21N 59°40' E 028°24'3 3.9
2016-May-20 13:33N 59°44' E 028°23'1313.0
2016-May-20 12:34N 59°56' E 028°33'1211.9
2016-May-20 11:33N 60°05' E 028°19'1616.0
2016-May-20 10:33N 60°10' E 027°49'1616.2
2016-May-20 09:33N 60°03' E 027°20'1515.4
2016-May-20 08:33N 59°59' E 026°50'1615.9
2016-May-20 07:33N 59°56' E 026°19'1616.1
2016-May-20 06:33N 59°52' E 025°48'1616.0
2016-May-20 05:33N 59°48' E 025°17'2116.1
2016-May-20 04:15N 59°44' E 024°36'1416.1
2016-May-20 03:25N 59°40' E 024°10'1416.1
2016-May-20 02:33N 59°36' E 023°44'1616.2
2016-May-20 01:33N 59°31' E 023°14'1616.1
2016-May-20 00:32N 59°26' E 022°43'32116.1
2016-May-19 04:34N 55°41' E 015°38'1616.0
2016-May-19 03:33N 55°33' E 015°13'1616.2
2016-May-19 02:34N 55°25' E 014°48'1615.7
2016-May-19 01:34N 55°15' E 014°27'1616.1
2016-May-19 00:34N 55°03' E 014°08'1615.9
2016-May-18 23:33N 54°56' E 013°43'1615.9
2016-May-18 22:33N 54°51' E 013°17'1615.5
2016-May-18 21:33N 54°46' E 012°51'2216.0
2016-May-18 20:12N 54°35' E 012°19'1116.6
2016-May-18 19:33N 54°25' E 012°12'1615.8
2016-May-18 18:33N 54°25' E 011°45'1616.1
2016-May-18 17:33N 54°32' E 011°20'1616.1
2016-May-18 16:33N 54°40' E 010°56'1414.2
2016-May-18 15:33N 54°54' E 010°53'1615.6
2016-May-18 14:33N 55°09' E 011°03'4414.3
2016-May-18 11:26N 55°53' E 010°54'1415.6
2016-May-18 10:33N 56°05' E 011°08'4715.6
2016-May-18 07:33N 56°45' E 011°51'1616.3
2016-May-18 06:33N 57°00' E 011°43'1716.6
2016-May-18 05:33N 57°16' E 011°33'1716.5
2016-May-18 04:33N 57°31' E 011°19'1717.2
2016-May-18 03:33N 57°42' E 010°55'1716.7
2016-May-18 02:33N 57°47' E 010°25'  

Dump ship's entire track history